Latest Weather Observations for Brisbane Airport

IDQ60901

Issued at 5:41 am EST Thursday 23 February 2017 (issued every 10 minutes, with the page automatically refreshed every 10 minutes)

About weather observations | Map of Brisbane area stations | Latest observations for Brisbane area | Other Formats
Station Details ID: 040842 Name: BRISBANE AERO Lat: -27.39 Lon: 153.13 Height: 4.51 m
Data from the previous 72 hours. | See also: Recent months at Brisbane Airport
Date/Time
EST
Temp
°C
App
Temp
°C
Dew
Point
°C
Rel
Hum
%
Delta-T
°C
Wind Press
QNH
hPa
Press
MSL
hPa
Rain since
9am
mm
Dir  Spd
km/h
Gust
km/h
Spd
kts
Gust
kts
23/05:30am 20.8 21.0 15.8 73 3.0 SSW 9 11 5 6 1017.8 1017.8 0.0
23/05:00am 21.0 21.3 16.0 73 3.0 SSW 9 11 5 6 1017.7 1017.7 0.0
23/04:30am 21.6 21.9 16.1 71 3.3 SSW 9 13 5 7 1017.7 1017.7 0.0
23/04:00am 22.5 22.7 15.8 66 4.0 SSW 9 17 5 9 1017.5 1017.5 0.0
23/03:30am 23.0 22.9 15.9 64 4.3 SSW 11 17 6 9 1017.5 1017.5 0.0
23/03:00am 23.0 23.0 16.2 65 4.1 S 11 15 6 8 1017.6 1017.6 0.0
23/02:30am 23.0 22.5 16.0 64 4.2 SSW 13 19 7 10 1017.7 1017.7 0.0
23/02:00am 23.2 22.8 16.1 64 4.3 S 13 19 7 10 1017.8 1017.8 0.0
23/01:30am 22.8 22.3 16.0 65 4.1 SSW 13 17 7 9 1018.2 1018.1 0.0
23/01:00am 22.9 22.8 16.1 65 4.1 SSW 11 13 6 7 1018.6 1018.5 0.0
23/12:30am 23.1 23.1 16.2 65 4.2 SSW 11 17 6 9 1018.9 1018.8 0.0
23/12:00am 22.9 22.9 16.3 66 4.0 SSW 11 13 6 7 1019.1 1019.0 0.0
 
Date/Time
EST
Temp
°C
App
Temp
°C
Dew
Point
°C
Rel
Hum
%
Delta-T
°C
Wind Press
QNH
hPa
Press
MSL
hPa
Rain since
9am
mm
Dir  Spd
km/h
Gust
km/h
Spd
kts
Gust
kts
22/11:30pm 22.2 22.6 16.2 69 3.6 SSW 9 13 5 7 1019.3 1019.2 0.0
22/11:00pm 22.1 22.0 15.9 68 3.7 SSW 11 13 6 7 1019.4 1019.3 0.0
22/10:30pm 23.3 23.4 15.4 61 4.7 S 9 15 5 8 1019.5 1019.4 0.0
22/10:00pm 24.1 23.4 15.4 58 5.2 SE 13 22 7 12 1019.5 1019.4 0.0
22/09:30pm 24.4 22.6 15.4 57 5.4 ESE 19 32 10 17 1019.4 1019.3 0.0
22/09:00pm 24.5 22.7 15.9 58 5.2 SE 20 33 11 18 1019.3 1019.2 0.0
22/08:30pm 24.8 23.8 16.5 60 5.1 SE 17 28 9 15 1019.2 1019.1 0.0
22/08:00pm 24.8 23.0 15.5 56 5.6 SE 19 32 10 17 1018.8 1018.7 0.0
22/07:30pm 24.8 22.1 15.5 56 5.6 ESE 24 35 13 19 1018.4 1018.3 0.0
22/07:00pm 24.9 22.8 16.2 58 5.3 ESE 22 41 12 22 1018.2 1018.1 0.0
22/06:30pm 25.1 23.1 16.5 59 5.3 ESE 22 35 12 19 1018.0 1017.9 0.0
22/06:00pm 25.4 23.2 16.8 59 5.3 ESE 24 37 13 20 1017.5 1017.5 0.0
22/05:30pm 25.9 24.0 16.7 57 5.7 ESE 22 37 12 20 1017.3 1017.3 0.0
22/05:00pm 26.5 24.6 16.6 54 6.1 ESE 22 37 12 20 1017.2 1017.2 0.0
22/04:30pm 26.8 24.6 17.0 55 6.1 ESE 24 37 13 20 1016.9 1016.9 0.0
22/04:00pm 26.9 24.5 16.5 53 6.4 ESE 24 41 13 22 1016.9 1016.9 0.0
22/03:30pm 27.0 24.3 16.5 52 6.5 ESE 26 39 14 21 1016.9 1016.9 0.0
22/03:00pm 27.5 24.8 16.5 51 6.8 ESE 26 39 14 21 1016.9 1016.9 0.0
22/02:30pm 27.6 24.9 16.5 50 6.9 ESE 26 35 14 19 1017.3 1017.3 0.0
22/02:00pm 27.2 24.8 15.3 48 7.2 ESE 22 35 12 19 1017.7 1017.7 0.0
22/01:30pm 27.2 24.8 15.5 48 7.1 ESE 22 37 12 20 1018.0 1017.9 0.0
22/01:00pm 28.0 25.7 16.6 50 7.1 ESE 24 37 13 20 1018.3 1018.2 0.0
22/12:30pm 27.2 25.4 15.9 50 6.9 ESE 20 33 11 18 1018.6 1018.5 0.0
22/12:00pm 27.6 25.6 16.4 50 6.9 ESE 22 35 12 19 1018.7 1018.6 0.0
22/11:30am 28.2 25.8 16.4 48 7.3 ESE 24 37 13 20 1019.1 1019.0 0.0
22/11:00am 27.7 26.0 17.1 52 6.6 ESE 22 33 12 18 1019.3 1019.2 0.0
22/10:30am 27.2 25.8 16.9 53 6.4 ESE 20 35 11 19 1019.3 1019.2 0.0
22/10:00am 27.1 25.7 17.9 57 5.8 ESE 22 33 12 18 1019.6 1019.5 0.0
22/09:30am 27.5 26.7 18.4 57 5.8 SE 20 35 11 19 1019.6 1019.5 0.0
22/09:00am 26.6 25.6 17.9 59 5.5 SE 20 32 11 17 1019.8 1019.7 0.0
22/08:30am 26.4 26.3 17.8 59 5.4 SSE 15 26 8 14 1019.7 1019.6 0.0
22/08:00am 26.0 26.1 18.4 63 4.8 S 15 24 8 13 1019.5 1019.4 0.0
22/07:30am 24.8 24.8 18.1 66 4.2 S 15 20 8 11 1019.1 1019.0 0.0
22/07:00am 24.3 24.3 18.1 68 3.9 S 15 24 8 13 1019.1 1019.0 0.0
22/06:30am 23.2 23.8 17.7 71 3.4 SSW 11 17 6 9 1018.9 1018.8 0.0
22/06:00am 22.9 23.8 17.6 72 3.3 S 9 13 5 7 1018.4 1018.3 0.0
22/05:30am 22.7 23.2 17.5 72 3.2 SSW 11 17 6 9 1018.3 1018.2 0.0
22/05:00am 22.7 23.2 17.5 72 3.2 SSW 11 13 6 7 1017.8 1017.8 0.0
22/04:30am 21.9 22.1 17.7 77 2.6 SSW 13 17 7 9 1017.8 1017.8 0.0
22/04:00am 22.4 23.4 17.7 75 2.9 SSW 9 13 5 7 1017.3 1017.3 0.0
22/03:30am 22.7 23.7 17.7 73 3.1 SSW 9 13 5 7 1017.3 1017.3 0.0
22/03:00am 22.9 23.9 17.7 72 3.2 SSW 9 11 5 6 1017.4 1017.4 0.0
22/02:30am 22.6 22.9 17.9 75 2.9 SSW 13 17 7 9 1017.3 1017.3 0.0
22/02:00am 22.5 22.5 18.0 75 2.8 SSW 15 17 8 9 1017.6 1017.6 0.0
22/01:30am 24.1 24.8 17.9 68 3.9 S 11 17 6 9 1017.6 1017.6 0.0
22/01:00am 24.5 24.8 18.0 67 4.1 SE 13 19 7 10 1017.7 1017.7 0.0
22/12:30am 25.1 25.3 17.7 63 4.6 SE 13 20 7 11 1017.8 1017.8 0.0
22/12:00am 25.1 24.6 17.7 63 4.6 ESE 17 26 9 14 1017.7 1017.7 0.0
 
Date/Time
EST
Temp
°C
App
Temp
°C
Dew
Point
°C
Rel
Hum
%
Delta-T
°C
Wind Press
QNH
hPa
Press
MSL
hPa
Rain since
9am
mm
Dir  Spd
km/h
Gust
km/h
Spd
kts
Gust
kts
21/11:30pm 25.2 24.2 17.5 62 4.8 ESE 19 30 10 16 1018.2 1018.1 0.0
21/11:00pm 25.3 24.3 17.6 62 4.8 ESE 19 28 10 15 1018.4 1018.3 0.0
21/10:30pm 25.3 24.6 17.4 61 4.9 ESE 17 26 9 14 1018.4 1018.3 0.0
21/10:00pm 25.5 24.4 17.3 60 5.1 ESE 19 28 10 15 1018.8 1018.7 0.0
21/09:30pm 25.6 24.9 17.4 60 5.1 ESE 17 28 9 15 1019.0 1018.9 0.0
21/09:00pm 25.7 24.8 17.7 61 5.0 ESE 19 35 10 19 1018.7 1018.6 0.0
21/08:30pm 25.7 24.5 17.5 60 5.1 ESE 20 33 11 18 1018.7 1018.6 0.0
21/08:00pm 25.8 25.0 17.1 58 5.4 ESE 17 32 9 17 1018.3 1018.2 0.0
21/07:30pm 26.0 25.2 17.0 57 5.6 ESE 17 30 9 16 1017.8 1017.8 0.0
21/07:00pm 26.2 24.8 16.6 55 5.9 ESE 19 28 10 15 1017.7 1017.7 0.0
21/06:30pm 26.3 25.1 16.2 53 6.2 ESE 17 28 9 15 1017.4 1017.4 0.0
21/06:00pm 26.5 25.3 17.0 56 5.9 ESE 19 32 10 17 1017.0 1017.0 0.0
21/05:30pm 26.7 25.7 18.0 59 5.5 ESE 20 35 11 19 1016.6 1016.6 0.0
21/05:00pm 27.1 26.4 18.6 59 5.4 ESE 20 33 11 18 1016.2 1016.2 0.0
21/04:30pm 27.8 27.1 19.5 60 5.4 ESE 22 33 12 18 1015.9 1015.9 0.0
21/04:00pm 28.3 26.8 18.6 55 6.2 SE 24 37 13 20 1015.7 1015.7 0.0
21/03:30pm 28.7 28.1 18.9 55 6.3 ESE 20 35 11 19 1015.5 1015.5 0.0
21/03:00pm 29.1 27.6 18.5 52 6.8 ESE 24 37 13 20 1015.6 1015.6 0.0
21/02:30pm 29.2 28.2 18.8 53 6.7 ESE 22 35 12 19 1015.7 1015.7 0.0
21/02:00pm 29.6 28.5 18.6 51 7.1 ESE 22 35 12 19 1015.7 1015.7 0.0
21/01:30pm 29.0 27.7 19.1 55 6.4 ESE 24 33 13 18 1015.8 1015.8 0.0
21/01:00pm 29.7 29.0 18.7 51 7.1 ESE 20 33 11 18 1015.8 1015.8 0.0
21/12:30pm 29.2 27.9 18.1 51 7.1 ESE 22 33 12 18 1016.1 1016.1 0.0
21/12:00pm 29.3 27.8 17.8 50 7.3 ESE 22 32 12 17 1016.3 1016.3 0.0
21/11:30am 29.4 28.2 18.3 51 7.1 ESE 22 32 12 17 1016.5 1016.5 0.0
21/11:00am 29.0 27.3 16.3 46 7.9 ESE 20 30 11 16 1016.8 1016.8 0.0
21/10:30am 29.0 28.9 18.7 53 6.6 ESE 17 26 9 14 1017.0 1017.0 0.0
21/10:00am 28.6 28.6 18.1 53 6.7 ESE 15 20 8 11 1017.2 1017.2 0.0
21/09:30am 28.7 29.4 18.9 55 6.3 ESE 13 20 7 11 1017.2 1017.2 0.0
21/09:00am 27.9 28.5 19.4 60 5.5 SE 15 24 8 13 1017.3 1017.3 0.0
21/08:30am 26.9 28.8 19.8 65 4.6 SSE 9 13 5 7 1017.1 1017.1 0.0
21/08:00am 26.3 27.7 19.5 66 4.4 SSW 11 15 6 8 1017.0 1017.0 0.0
21/07:30am 25.3 26.2 19.2 69 3.9 SSW 13 19 7 10 1016.8 1016.8 0.0
21/07:00am 24.0 24.7 19.6 76 2.8 SSW 15 19 8 10 1016.5 1016.5 0.0
21/06:30am 23.3 24.5 20.0 82 2.1 SSW 13 17 7 9 1016.0 1016.0 0.0
21/06:00am 22.5 24.4 19.8 85 1.7 SSW 9 13 5 7 1015.5 1015.5 0.0
21/05:30am 22.1 24.1 19.9 87 1.4 SSW 9 11 5 6 1014.9 1014.9 0.0
21/05:00am 21.6 23.6 19.9 90 1.1 SSW 9 13 5 7 1014.4 1014.4 0.0
21/04:30am 22.6 24.8 20.4 87 1.4 SSW 9 13 5 7 1014.1 1014.1 0.0
21/04:00am 22.7 25.0 20.7 88 1.3 S 9 13 5 7 1014.0 1014.0 0.0
21/03:30am 22.8 25.2 20.8 88 1.3 SSW 9 13 5 7 1013.6 1013.6 0.0
21/03:00am 23.1 25.5 20.8 87 1.5 S 9 11 5 6 1013.7 1013.7 0.0
21/02:30am 23.3 27.0 20.8 86 1.6 SSW 2 7 1 4 1013.4 1013.4 0.0
21/02:00am 23.5 27.8 21.1 86 1.6 CALM 0 0 0 0 1013.5 1013.5 0.0
21/01:30am 23.8 26.7 21.1 85 1.8 S 7 11 4 6 1013.8 1013.8 0.0
21/01:00am 24.0 27.0 20.9 83 2.0 SE 6 7 3 4 1014.1 1014.1 0.0
21/12:30am 24.8 27.8 20.8 78 2.6 ESE 6 7 3 4 1014.4 1014.4 0.0
21/12:00am 25.1 28.0 21.0 78 2.7 E 7 9 4 5 1014.3 1014.3 0.0
 
Date/Time
EST
Temp
°C
App
Temp
°C
Dew
Point
°C
Rel
Hum
%
Delta-T
°C
Wind Press
QNH
hPa
Press
MSL
hPa
Rain since
9am
mm
Dir  Spd
km/h
Gust
km/h
Spd
kts
Gust
kts
20/11:30pm 25.4 28.5 21.0 76 2.9 E 6 9 3 5 1014.6 1014.6 0.0
20/11:00pm 25.4 28.3 21.0 76 2.9 ESE 7 11 4 6 1014.5 1014.5 0.0
20/10:30pm 25.5 27.9 20.8 75 3.1 ESE 9 11 5 6 1014.6 1014.6 0.0
20/10:00pm 25.5 27.9 20.8 75 3.1 ESE 9 13 5 7 1014.6 1014.6 0.0
20/09:30pm 25.6 27.7 20.9 75 3.1 ESE 11 17 6 9 1014.5 1014.5 0.0
20/09:00pm 25.6 27.6 20.7 74 3.2 ESE 11 19 6 10 1014.1 1014.1 0.0
20/08:30pm 25.7 27.3 20.7 74 3.3 ESE 13 19 7 10 1013.6 1013.6 0.0
20/08:00pm 25.9 27.2 19.4 67 4.2 ESE 11 17 6 9 1013.0 1013.0 0.0
20/07:30pm 26.1 26.5 18.2 61 5.0 ESE 13 22 7 12 1012.5 1012.5 0.0
20/07:00pm 26.4 26.3 16.9 56 5.9 ESE 13 19 7 10 1012.2 1012.2 0.0
20/06:30pm 26.6 26.8 16.8 55 6.1 E 11 19 6 10 1011.8 1011.8 0.0
20/06:00pm 27.2 26.4 15.0 47 7.4 E 13 19 7 10 1011.2 1011.2 0.0
20/05:30pm 27.6 26.1 13.0 40 8.6 ESE 13 20 7 11 1010.6 1010.6 0.0
20/05:00pm 28.5 26.6 13.1 38 9.1 ESE 15 24 8 13 1010.0 1010.0 0.0
20/04:30pm 28.6 26.7 14.3 41 8.6 E 17 26 9 14 1009.7 1009.7 0.0
20/04:00pm 28.9 27.6 15.8 45 8.1 E 17 24 9 13 1009.4 1009.4 0.0
20/03:30pm 29.3 27.0 13.1 37 9.6 E 17 28 9 15 1009.3 1009.3 0.0
20/03:00pm 29.8 28.3 15.3 41 8.9 E 17 26 9 14 1009.3 1009.3 0.0
20/02:30pm 29.6 28.2 15.5 42 8.7 E 17 28 9 15 1009.4 1009.4 0.0
20/02:00pm 29.6 28.0 15.9 43 8.5 ESE 19 30 10 16 1009.5 1009.5 0.0
20/01:30pm 29.2 28.4 17.1 48 7.6 ESE 17 30 9 16 1009.6 1009.6 0.0
20/01:00pm 29.8 28.5 15.7 42 8.7 E 17 26 9 14 1009.9 1009.9 0.0
20/12:30pm 29.8 27.9 12.9 35 10.0 ESE 15 22 8 12 1010.2 1010.2 0.0
20/12:00pm 29.0 29.2 18.6 53 6.7 ESE 15 22 8 12 1010.5 1010.5 0.0
20/11:30am 29.1 29.0 17.0 48 7.6 S 13 24 7 13 1010.8 1010.8 0.0
20/11:00am 28.6 28.4 17.5 51 7.0 S 15 22 8 12 1011.3 1011.3 0.0
20/10:30am 27.7 27.8 17.4 53 6.5 S 13 22 7 12 1011.3 1011.3 0.0
20/10:00am 27.3 26.7 18.4 58 5.7 SW 19 30 10 16 1011.3 1011.3 0.0
20/09:30am 26.7 26.6 18.7 61 5.1 SW 17 26 9 14 1011.5 1011.5 0.0
20/09:00am 25.2 26.2 19.5 70 3.7 WSW 13 20 7 11 1011.6 1011.6 7.8
20/08:30am 24.6 26.7 20.1 76 2.9 SW 9 13 5 7 1011.7 1011.7 7.8
20/08:00am 23.8 26.1 20.7 83 2.0 SSW 9 13 5 7 1011.5 1011.5 7.8
20/07:30am 23.4 25.6 20.5 84 1.9 SSW 9 13 5 7 1011.1 1011.1 7.8
20/07:00am 23.2 25.1 20.6 85 1.7 SSW 11 13 6 7 1010.8 1010.8 7.8
20/06:30am 22.6 25.2 20.4 87 1.4 SE 7 7 4 4 1010.3 1010.3 7.8
20/06:00am 21.8 24.2 20.1 90 1.1 SSW 7 9 4 5 1009.7 1009.7 7.8

Latest Capital City Observations: Canberra | Sydney | Melbourne | Brisbane | Adelaide | Perth | Hobart | Darwin

Other Formats:

Comma delimited format used in spreadsheet applications
http://www.bom.gov.au/fwo/IDQ60901/IDQ60901.94578.axf

JavaScript Object Notation format (JSON) in row-major order
http://www.bom.gov.au/fwo/IDQ60901/IDQ60901.94578.json